createdAt,value
2018-03-25T00:00:45.721Z,-2.50
2018-03-25T00:03:13.236Z,-2.50
2018-03-25T00:05:40.736Z,-2.60
2018-03-25T00:08:08.225Z,-2.50
2018-03-25T00:10:36.507Z,-2.60
2018-03-25T00:13:04.763Z,-2.60
2018-03-25T00:15:32.250Z,-2.60
2018-03-25T00:17:59.759Z,-2.60
2018-03-25T00:20:27.243Z,-2.60
2018-03-25T00:22:54.751Z,-2.60
2018-03-25T00:25:22.267Z,-2.60
2018-03-25T00:27:50.518Z,-2.60
2018-03-25T00:30:18.006Z,-2.60
2018-03-25T00:32:46.286Z,-2.60
2018-03-25T00:35:14.534Z,-2.60
2018-03-25T00:37:42.014Z,-2.60
2018-03-25T00:40:10.283Z,-2.60
2018-03-25T00:42:38.529Z,-2.70
2018-03-25T00:45:06.019Z,-2.80
2018-03-25T00:47:34.296Z,-2.90
2018-03-25T00:50:01.780Z,-2.90
2018-03-25T00:52:29.262Z,-3.00
2018-03-25T00:54:56.762Z,-3.00
2018-03-25T00:57:25.014Z,-3.00
2018-03-25T00:59:52.498Z,-3.00
2018-03-25T01:02:20.767Z,-3.20
2018-03-25T01:04:49.029Z,-3.20
2018-03-25T01:07:16.519Z,-3.20
2018-03-25T01:09:44.025Z,-3.20
2018-03-25T01:12:11.515Z,-3.20
2018-03-25T01:14:39.031Z,-3.20
2018-03-25T01:17:07.288Z,-3.20
2018-03-25T01:19:34.787Z,-3.20
2018-03-25T01:22:02.302Z,-3.20
2018-03-25T01:24:29.794Z,-3.20
2018-03-25T01:26:57.282Z,-3.20
2018-03-25T01:29:24.797Z,-3.30
2018-03-25T01:31:52.287Z,-3.20
2018-03-25T01:34:19.770Z,-3.30
2018-03-25T01:36:48.033Z,-3.20
2018-03-25T01:39:16.282Z,-3.20
2018-03-25T01:41:44.549Z,-3.20
2018-03-25T01:44:12.042Z,-3.20
2018-03-25T01:46:40.293Z,-3.20
2018-03-25T01:49:07.811Z,-3.30
2018-03-25T01:51:35.285Z,-3.30
2018-03-25T01:54:03.534Z,-3.40
2018-03-25T01:56:31.117Z,-3.40
2018-03-25T01:58:58.594Z,-3.30
2018-03-25T02:01:26.078Z,-3.20
2018-03-25T02:03:53.710Z,-3.20
2018-03-25T02:06:21.245Z,-3.20
2018-03-25T02:08:48.729Z,-3.20
2018-03-25T02:11:16.237Z,-3.30
2018-03-25T02:13:43.722Z,-3.30
2018-03-25T02:16:11.214Z,-3.30
2018-03-25T02:18:38.734Z,-3.30
2018-03-25T02:21:06.218Z,-3.30
2018-03-25T02:23:33.711Z,-3.40
2018-03-25T02:26:01.980Z,-3.50
2018-03-25T02:28:30.226Z,-3.40
2018-03-25T02:30:57.710Z,-3.50
2018-03-25T02:33:26.011Z,-3.40
2018-03-25T02:35:53.501Z,-3.40
2018-03-25T02:38:20.988Z,-3.40
2018-03-25T02:40:48.491Z,-3.40
2018-03-25T02:43:15.974Z,-3.40
2018-03-25T02:45:43.484Z,-3.40
2018-03-25T02:48:11.746Z,-3.40
2018-03-25T02:50:40.006Z,-3.50
2018-03-25T02:53:07.509Z,-3.50
2018-03-25T02:55:34.993Z,-3.50
2018-03-25T02:58:02.488Z,-3.50
2018-03-25T03:00:29.990Z,-3.50
2018-03-25T03:02:57.478Z,-3.50
2018-03-25T03:05:24.992Z,-3.50
2018-03-25T03:07:52.476Z,-3.50
2018-03-25T03:10:19.963Z,-3.50
2018-03-25T03:12:47.466Z,-3.50
2018-03-25T03:15:14.943Z,-3.50
2018-03-25T03:17:42.431Z,-3.60
2018-03-25T03:20:10.118Z,-3.60
2018-03-25T03:22:38.373Z,-3.60
2018-03-25T03:25:05.864Z,-3.60
2018-03-25T03:27:33.409Z,-3.60
2018-03-25T03:30:01.661Z,-3.50
2018-03-25T03:32:29.154Z,-3.60
2018-03-25T03:34:57.432Z,-3.70
2018-03-25T03:37:25.762Z,-3.70
2018-03-25T03:39:53.522Z,-3.70
2018-03-25T03:42:21.026Z,-3.70
2018-03-25T03:44:49.270Z,-3.80
2018-03-25T03:47:16.756Z,-3.80
2018-03-25T03:49:45.027Z,-3.80
2018-03-25T03:52:15.198Z,-3.80
2018-03-25T03:54:42.678Z,-3.80
2018-03-25T03:57:10.173Z,-3.80
2018-03-25T03:59:37.754Z,-3.80
2018-03-25T04:02:05.258Z,-3.80
2018-03-25T04:04:32.747Z,-3.90
2018-03-25T04:07:00.255Z,-3.80
2018-03-25T04:09:27.950Z,-3.80
2018-03-25T04:11:56.206Z,-3.80
2018-03-25T04:14:23.695Z,-3.90
2018-03-25T04:16:51.970Z,-3.80
2018-03-25T04:19:20.254Z,-3.80
2018-03-25T04:21:48.005Z,-3.80
2018-03-25T04:24:15.542Z,-3.90
2018-03-25T04:26:43.023Z,-3.90
2018-03-25T04:29:11.279Z,-3.90
2018-03-25T04:31:38.779Z,-4.00
2018-03-25T04:34:06.267Z,-3.90
2018-03-25T04:36:33.750Z,-3.90
2018-03-25T04:39:01.245Z,-4.00
2018-03-25T04:41:28.726Z,-4.00
2018-03-25T04:43:56.209Z,-4.10
2018-03-25T04:46:24.474Z,-4.10
2018-03-25T04:48:51.967Z,-4.10
2018-03-25T04:51:20.214Z,-4.10
2018-03-25T04:53:47.714Z,-4.10
2018-03-25T04:56:15.962Z,-4.20
2018-03-25T04:58:43.473Z,-4.20
2018-03-25T05:01:10.966Z,-4.20
2018-03-25T05:03:38.455Z,-4.20
2018-03-25T05:06:06.722Z,-4.20
2018-03-25T05:08:34.226Z,-4.20
2018-03-25T05:11:01.727Z,-4.10
2018-03-25T05:13:29.211Z,-4.10
2018-03-25T05:15:57.486Z,-4.00
2018-03-25T05:18:25.739Z,-3.90
2018-03-25T05:20:53.459Z,-3.90
2018-03-25T05:23:21.009Z,-3.90
2018-03-25T05:25:48.494Z,-3.80
2018-03-25T05:28:15.983Z,-3.70
2018-03-25T05:30:44.251Z,-3.80
2018-03-25T05:33:11.739Z,-3.80
2018-03-25T05:35:39.222Z,-3.70
2018-03-25T05:38:06.735Z,-3.60
2018-03-25T05:40:34.987Z,-3.40
2018-03-25T05:43:02.499Z,-3.40
2018-03-25T05:45:29.986Z,-3.30
2018-03-25T05:47:57.479Z,-3.20
2018-03-25T05:50:25.761Z,-2.70
2018-03-25T05:52:55.207Z,-1.70
2018-03-25T05:55:22.948Z,-1.70
2018-03-25T05:57:50.561Z,-0.60
2018-03-25T06:00:18.042Z,0.40
2018-03-25T06:02:46.470Z,1.90
2018-03-25T06:05:15.893Z,1.90
2018-03-25T06:07:43.437Z,2.50
2018-03-25T06:10:10.958Z,3.40
2018-03-25T06:12:38.467Z,4.00
2018-03-25T06:15:10.822Z,4.50
2018-03-25T06:17:40.339Z,5.10
2018-03-25T06:20:07.819Z,5.80
2018-03-25T06:22:35.297Z,6.20
2018-03-25T06:25:02.813Z,6.40
2018-03-25T06:27:36.815Z,6.80
2018-03-25T06:30:04.323Z,6.80
2018-03-25T06:32:32.594Z,8.60
2018-03-25T06:35:00.850Z,8.30
2018-03-25T06:37:28.359Z,8.20
2018-03-25T06:39:57.778Z,8.60
2018-03-25T06:42:25.261Z,9.60
2018-03-25T06:44:52.769Z,10.10
2018-03-25T06:47:20.260Z,10.60
2018-03-25T06:49:48.522Z,11.10
2018-03-25T06:52:20.485Z,11.10
2018-03-25T06:54:48.045Z,11.20
2018-03-25T06:57:15.528Z,11.30
2018-03-25T06:59:43.210Z,11.50
2018-03-25T07:02:13.388Z,12.20
2018-03-25T07:04:40.870Z,12.10
2018-03-25T07:07:08.542Z,12.60
2018-03-25T07:09:36.023Z,12.70
2018-03-25T07:12:03.506Z,12.80
2018-03-25T07:14:31.246Z,12.90
2018-03-25T07:16:58.694Z,13.40
2018-03-25T07:19:26.950Z,13.60
2018-03-25T07:22:00.226Z,13.60
2018-03-25T07:24:27.710Z,14.30
2018-03-25T07:26:55.961Z,14.80
2018-03-25T07:29:23.472Z,14.80
2018-03-25T07:31:54.941Z,15.10
2018-03-25T07:34:22.422Z,15.10
2018-03-25T07:36:50.406Z,15.10
2018-03-25T07:39:18.092Z,14.80
2018-03-25T07:41:50.434Z,14.70
2018-03-25T07:44:17.923Z,14.70
2018-03-25T07:46:46.170Z,15.10
2018-03-25T07:49:13.672Z,15.10
2018-03-25T07:51:44.947Z,15.50
2018-03-25T07:54:13.215Z,15.80
2018-03-25T07:56:40.697Z,15.70
2018-03-25T07:59:08.178Z,15.80
2018-03-25T08:01:36.454Z,16.00
2018-03-25T08:04:04.726Z,16.60
2018-03-25T08:06:33.981Z,16.70
2018-03-25T08:09:01.614Z,16.60
2018-03-25T08:11:29.101Z,16.80
2018-03-25T08:13:56.597Z,17.10
2018-03-25T08:16:25.071Z,16.90
2018-03-25T08:18:52.570Z,17.50
2018-03-25T08:21:20.064Z,17.70
2018-03-25T08:23:47.567Z,17.80
2018-03-25T08:26:15.868Z,18.20
2018-03-25T08:28:43.350Z,18.20
2018-03-25T08:31:11.049Z,18.40
2018-03-25T08:33:39.352Z,17.30
2018-03-25T08:36:06.834Z,17.30
2018-03-25T08:38:35.343Z,15.40
2018-03-25T08:41:02.884Z,12.20
2018-03-25T08:43:30.366Z,10.30
2018-03-25T08:45:59.859Z,9.20
2018-03-25T08:48:27.333Z,8.40
2018-03-25T08:50:54.814Z,7.70
2018-03-25T08:53:24.074Z,7.40
2018-03-25T08:55:51.554Z,7.40
2018-03-25T08:58:19.038Z,7.10
2018-03-25T09:00:49.366Z,7.00
2018-03-25T09:03:17.095Z,7.00
2018-03-25T09:05:46.113Z,7.00
2018-03-25T09:08:14.536Z,7.00
2018-03-25T09:10:42.014Z,7.00
2018-03-25T09:13:09.494Z,7.00
2018-03-25T09:15:37.784Z,6.90
2018-03-25T09:18:06.036Z,6.70
2018-03-25T09:20:33.523Z,6.70
2018-03-25T09:23:01.028Z,6.80
2018-03-25T09:25:28.521Z,6.80
2018-03-25T09:27:56.018Z,6.80
2018-03-25T09:30:23.511Z,6.70
2018-03-25T09:32:51.066Z,6.70
2018-03-25T09:35:19.017Z,6.70
2018-03-25T09:37:46.518Z,6.80
2018-03-25T09:40:14.006Z,6.90
2018-03-25T09:42:42.265Z,7.00
2018-03-25T09:45:10.522Z,7.00
2018-03-25T09:47:37.999Z,7.00
2018-03-25T09:50:06.271Z,7.10
2018-03-25T09:52:33.766Z,7.10
2018-03-25T09:55:01.268Z,7.20
2018-03-25T09:57:28.771Z,7.20
2018-03-25T09:59:56.256Z,7.20
2018-03-25T10:02:27.626Z,7.30
2018-03-25T10:04:55.111Z,7.40
2018-03-25T10:07:23.362Z,7.30
2018-03-25T10:09:50.865Z,7.30
2018-03-25T10:12:18.341Z,7.30
2018-03-25T10:14:45.814Z,7.30
2018-03-25T10:17:13.318Z,7.40
2018-03-25T10:19:41.566Z,7.30
2018-03-25T10:22:09.049Z,7.30
2018-03-25T10:24:37.318Z,7.40
2018-03-25T10:27:04.798Z,7.40
2018-03-25T10:29:32.278Z,7.50
2018-03-25T10:31:59.773Z,7.60
2018-03-25T10:34:27.254Z,7.60
2018-03-25T10:36:55.495Z,7.70
2018-03-25T10:39:22.992Z,7.70
2018-03-25T10:41:51.238Z,7.90
2018-03-25T10:44:18.725Z,7.90
2018-03-25T10:46:46.986Z,7.90
2018-03-25T10:49:14.473Z,7.90
2018-03-25T10:51:41.954Z,7.90
2018-03-25T10:54:09.468Z,7.70
2018-03-25T10:56:37.722Z,7.80
2018-03-25T10:59:05.223Z,7.70
2018-03-25T11:01:34.665Z,7.90
2018-03-25T11:04:02.911Z,7.50
2018-03-25T11:06:30.390Z,7.50
2018-03-25T11:08:57.886Z,7.60
2018-03-25T11:11:25.371Z,7.70
2018-03-25T11:13:52.857Z,7.80
2018-03-25T11:16:20.349Z,7.80
2018-03-25T11:18:47.826Z,7.80
2018-03-25T11:21:16.070Z,7.70
2018-03-25T11:23:43.576Z,7.70
2018-03-25T11:26:11.054Z,8.00
2018-03-25T11:28:38.531Z,8.30
2018-03-25T11:31:06.022Z,8.40
2018-03-25T11:33:33.501Z,8.50
2018-03-25T11:36:01.757Z,8.70
2018-03-25T11:38:30.028Z,8.70
2018-03-25T11:40:57.506Z,8.80
2018-03-25T11:43:24.985Z,9.00
2018-03-25T11:45:52.482Z,9.00
2018-03-25T11:48:19.953Z,9.00
2018-03-25T11:50:47.442Z,9.00
2018-03-25T11:53:14.977Z,9.10
2018-03-25T11:55:42.442Z,9.20
2018-03-25T11:58:10.691Z,9.20
2018-03-25T12:00:38.190Z,9.20
2018-03-25T12:03:05.673Z,9.20
2018-03-25T12:05:33.151Z,9.10
2018-03-25T12:08:00.642Z,9.10
2018-03-25T12:10:29.890Z,8.90
2018-03-25T12:12:57.370Z,8.90
2018-03-25T12:15:24.866Z,8.70
2018-03-25T12:17:53.115Z,9.00
2018-03-25T12:20:20.608Z,9.00
2018-03-25T12:22:48.108Z,9.10
2018-03-25T12:25:15.578Z,9.10
2018-03-25T12:27:43.062Z,9.20
2018-03-25T12:30:11.354Z,9.30
2018-03-25T12:32:38.835Z,9.30
2018-03-25T12:35:06.314Z,9.20
2018-03-25T12:37:33.822Z,9.20
2018-03-25T12:40:02.074Z,8.90
2018-03-25T12:42:29.590Z,8.90
2018-03-25T12:44:57.071Z,8.80
2018-03-25T12:47:24.563Z,8.80
2018-03-25T12:49:52.092Z,9.00
2018-03-25T12:52:19.561Z,9.00
2018-03-25T12:54:47.071Z,9.00
2018-03-25T12:57:14.558Z,9.00
2018-03-25T12:59:42.248Z,9.10
2018-03-25T13:02:10.502Z,9.20
2018-03-25T13:04:37.990Z,9.20
2018-03-25T13:07:06.272Z,9.20
2018-03-25T13:09:33.778Z,9.20
2018-03-25T13:12:01.259Z,9.20
2018-03-25T13:14:28.757Z,9.20
2018-03-25T13:16:56.247Z,9.30
2018-03-25T13:19:23.761Z,9.40
2018-03-25T13:21:51.246Z,9.40
2018-03-25T13:24:18.731Z,9.50
2018-03-25T13:26:46.421Z,9.50
2018-03-25T13:29:14.670Z,9.30
2018-03-25T13:31:42.150Z,9.30
2018-03-25T13:34:10.418Z,9.20
2018-03-25T13:36:37.893Z,9.20
2018-03-25T13:39:06.146Z,9.30
2018-03-25T13:41:33.715Z,9.30
2018-03-25T13:44:01.274Z,9.30
2018-03-25T13:46:29.527Z,9.30
2018-03-25T13:48:57.030Z,9.30
2018-03-25T13:51:24.515Z,9.30
2018-03-25T13:53:52.776Z,9.30
2018-03-25T13:56:20.294Z,9.30
2018-03-25T13:58:47.770Z,9.30
2018-03-25T14:01:16.015Z,9.00
2018-03-25T14:03:43.520Z,9.00
2018-03-25T14:06:11.006Z,8.90
2018-03-25T14:08:38.506Z,9.00
2018-03-25T14:11:06.762Z,9.00
2018-03-25T14:13:34.320Z,9.00
2018-03-25T14:16:01.824Z,8.90
2018-03-25T14:18:29.322Z,9.00
2018-03-25T14:20:56.811Z,9.10
2018-03-25T14:23:25.105Z,9.10
2018-03-25T14:25:52.614Z,9.10
2018-03-25T14:28:20.158Z,9.10
2018-03-25T14:30:47.686Z,9.00
2018-03-25T14:33:15.239Z,8.90
2018-03-25T14:35:42.741Z,8.90
2018-03-25T14:38:10.228Z,8.80
2018-03-25T14:40:37.751Z,8.80
2018-03-25T14:43:05.266Z,8.90
2018-03-25T14:45:33.562Z,9.00
2018-03-25T14:48:01.050Z,8.90
2018-03-25T14:50:28.566Z,8.90
2018-03-25T14:52:56.059Z,8.90
2018-03-25T14:55:24.394Z,8.90
2018-03-25T14:57:51.878Z,8.90
2018-03-25T15:00:19.359Z,9.00
2018-03-25T15:02:46.886Z,9.10
2018-03-25T15:05:14.358Z,9.10
2018-03-25T15:07:41.842Z,9.00
2018-03-25T15:10:09.359Z,8.90
2018-03-25T15:12:36.850Z,8.80
2018-03-25T15:15:04.350Z,8.70
2018-03-25T15:17:32.765Z,8.60
2018-03-25T15:20:00.251Z,8.60
2018-03-25T15:22:27.730Z,8.40
2018-03-25T15:24:55.998Z,8.30
2018-03-25T15:27:23.483Z,8.30
2018-03-25T15:29:50.979Z,8.30
2018-03-25T15:32:18.474Z,8.30
2018-03-25T15:34:45.954Z,8.20
2018-03-25T15:37:13.458Z,8.10
2018-03-25T15:39:40.949Z,8.10
2018-03-25T15:42:08.454Z,8.10
2018-03-25T15:44:36.003Z,8.20
2018-03-25T15:47:04.209Z,8.00
2018-03-25T15:49:31.682Z,8.00
2018-03-25T15:51:59.947Z,8.10
2018-03-25T15:54:27.443Z,8.10
2018-03-25T15:56:55.690Z,8.20
2018-03-25T15:59:23.200Z,8.20
2018-03-25T16:01:50.687Z,8.40
2018-03-25T16:04:18.170Z,8.50
2018-03-25T16:06:45.671Z,8.40
2018-03-25T16:09:13.159Z,8.40
2018-03-25T16:11:40.666Z,8.40
2018-03-25T16:14:08.923Z,8.30
2018-03-25T16:16:36.398Z,8.30
2018-03-25T16:19:04.658Z,8.40
2018-03-25T16:21:32.914Z,8.30
2018-03-25T16:24:00.422Z,8.30
2018-03-25T16:26:27.907Z,8.20
2018-03-25T16:28:55.391Z,8.20
2018-03-25T16:31:22.899Z,8.10
2018-03-25T16:33:50.385Z,8.10
2018-03-25T16:36:17.862Z,7.90
2018-03-25T16:38:45.388Z,7.80
2018-03-25T16:41:12.891Z,7.70
2018-03-25T16:43:40.370Z,7.70
2018-03-25T16:46:07.878Z,7.60
2018-03-25T16:48:35.363Z,7.50
2018-03-25T16:51:02.847Z,7.50
2018-03-25T16:53:30.387Z,7.40
2018-03-25T16:55:58.642Z,7.30
2018-03-25T16:58:26.159Z,7.30
2018-03-25T17:00:53.650Z,7.30
2018-03-25T17:03:21.134Z,7.20
2018-03-25T17:05:49.394Z,6.90
2018-03-25T17:08:16.877Z,6.90
2018-03-25T17:10:44.374Z,6.80
2018-03-25T17:13:12.663Z,6.50
2018-03-25T17:15:40.170Z,6.50
2018-03-25T17:18:07.663Z,6.30
2018-03-25T17:20:35.412Z,6.20
2018-03-25T17:23:02.900Z,6.10
2018-03-25T17:25:30.382Z,5.90
2018-03-25T17:27:57.892Z,5.60
2018-03-25T17:30:25.423Z,5.40
2018-03-25T17:32:52.915Z,5.40
2018-03-25T17:35:20.410Z,5.30
2018-03-25T17:37:47.894Z,5.30
2018-03-25T17:40:15.409Z,5.20
2018-03-25T17:42:42.942Z,5.10
2018-03-25T17:45:10.422Z,4.70
2018-03-25T17:47:37.924Z,4.60
2018-03-25T17:50:05.465Z,4.50
2018-03-25T17:52:32.907Z,4.40
2018-03-25T17:55:00.590Z,4.40
2018-03-25T17:57:28.842Z,4.40
2018-03-25T17:59:56.321Z,4.40
2018-03-25T18:02:24.595Z,4.20
2018-03-25T18:04:52.843Z,4.30
2018-03-25T18:07:20.318Z,4.20
2018-03-25T18:09:47.814Z,4.40
2018-03-25T18:12:15.298Z,4.60
2018-03-25T18:14:42.771Z,4.60
2018-03-25T18:17:33.460Z,4.50
2018-03-25T18:19:37.788Z,4.60
2018-03-25T18:22:05.274Z,4.70
2018-03-25T18:24:33.577Z,4.90
2018-03-25T18:27:01.803Z,4.90
2018-03-25T18:29:29.487Z,4.90
2018-03-25T18:31:57.738Z,5.00
2018-03-25T18:34:25.223Z,5.00
2018-03-25T18:36:53.510Z,5.10
2018-03-25T18:39:20.981Z,5.00
2018-03-25T18:41:48.483Z,5.10
2018-03-25T18:44:15.971Z,5.00
2018-03-25T18:46:44.219Z,5.00
2018-03-25T18:49:11.913Z,5.00
2018-03-25T18:51:39.402Z,5.10
2018-03-25T18:54:06.887Z,5.10
2018-03-25T18:56:34.415Z,5.00
2018-03-25T18:59:01.892Z,4.80
2018-03-25T19:01:29.379Z,4.50
2018-03-25T19:03:56.879Z,4.30
2018-03-25T19:06:24.360Z,4.30
2018-03-25T19:08:51.850Z,4.30
2018-03-25T19:11:19.373Z,4.30
2018-03-25T19:13:46.869Z,4.50
2018-03-25T19:16:14.374Z,4.60
2018-03-25T19:18:41.878Z,4.70
2018-03-25T19:21:09.374Z,4.70
2018-03-25T19:23:36.870Z,4.80
2018-03-25T19:26:04.406Z,4.90
2018-03-25T19:28:31.917Z,4.90
2018-03-25T19:31:00.182Z,4.90
2018-03-25T19:33:27.697Z,4.90
2018-03-25T19:35:55.178Z,4.90
2018-03-25T19:38:23.912Z,4.90
2018-03-25T19:40:51.406Z,4.90
2018-03-25T19:43:18.889Z,4.90
2018-03-25T19:45:46.441Z,4.90
2018-03-25T19:48:13.923Z,4.90
2018-03-25T19:50:41.492Z,4.90
2018-03-25T19:53:09.810Z,4.90
2018-03-25T19:55:37.298Z,4.90
2018-03-25T19:58:05.594Z,4.90
2018-03-25T20:00:33.883Z,4.90
2018-03-25T20:03:02.150Z,4.80
2018-03-25T20:05:30.439Z,4.70
2018-03-25T20:07:58.731Z,4.80
2018-03-25T20:10:26.227Z,4.80
2018-03-25T20:12:54.502Z,4.80
2018-03-25T20:15:22.027Z,4.80
2018-03-25T20:17:49.536Z,4.80
2018-03-25T20:20:17.023Z,4.80
2018-03-25T20:22:44.548Z,4.90
2018-03-25T20:25:12.082Z,4.80
2018-03-25T20:27:39.607Z,4.70
2018-03-25T20:30:07.119Z,4.70
2018-03-25T20:32:34.623Z,4.50
2018-03-25T20:35:02.118Z,4.30
2018-03-25T20:37:29.682Z,4.20
2018-03-25T20:39:57.230Z,4.20
2018-03-25T20:42:24.738Z,4.20
2018-03-25T20:44:53.245Z,4.30
2018-03-25T20:47:20.738Z,4.20
2018-03-25T20:49:48.242Z,4.30
2018-03-25T20:52:15.765Z,4.30
2018-03-25T20:54:43.273Z,4.40
2018-03-25T20:57:10.762Z,4.30
2018-03-25T20:59:38.279Z,4.30
2018-03-25T21:02:05.787Z,4.30
2018-03-25T21:04:33.274Z,4.30
2018-03-25T21:07:01.562Z,4.40
2018-03-25T21:09:29.806Z,4.30
2018-03-25T21:11:57.356Z,4.30
2018-03-25T21:14:24.834Z,4.20
2018-03-25T21:16:52.314Z,4.10
2018-03-25T21:19:19.821Z,4.00
2018-03-25T21:21:47.371Z,3.90
2018-03-25T21:24:14.865Z,3.90
2018-03-25T21:26:43.127Z,3.90
2018-03-25T21:29:10.649Z,3.90
2018-03-25T21:31:38.154Z,3.90
2018-03-25T21:34:05.651Z,3.90
2018-03-25T21:36:33.167Z,4.00
2018-03-25T21:39:00.660Z,4.00
2018-03-25T21:41:28.171Z,3.90
2018-03-25T21:43:55.706Z,3.80
2018-03-25T21:46:23.199Z,3.70
2018-03-25T21:48:50.702Z,3.60
2018-03-25T21:51:18.260Z,3.70
2018-03-25T21:53:45.754Z,3.70
2018-03-25T21:56:13.247Z,3.70
2018-03-25T21:58:41.566Z,3.60
2018-03-25T22:01:09.080Z,3.60
2018-03-25T22:03:37.334Z,3.60
2018-03-25T22:06:04.854Z,3.60
2018-03-25T22:08:32.348Z,3.70
2018-03-25T22:11:00.206Z,3.50
2018-03-25T22:13:27.709Z,3.50
2018-03-25T22:15:55.216Z,3.50
2018-03-25T22:18:43.348Z,3.50
2018-03-25T22:21:10.838Z,3.50
2018-03-25T22:23:38.395Z,3.50
2018-03-25T22:26:05.929Z,3.50
2018-03-25T22:28:33.430Z,3.50
2018-03-25T22:31:01.682Z,3.60
2018-03-25T22:33:29.199Z,3.50
2018-03-25T22:35:56.732Z,3.60
2018-03-25T22:38:24.235Z,3.50
2018-03-25T22:40:51.733Z,3.60
2018-03-25T22:43:20.058Z,3.60
2018-03-25T22:45:47.552Z,3.60
2018-03-25T22:48:15.035Z,3.60
2018-03-25T22:50:42.679Z,3.60
2018-03-25T22:53:10.950Z,3.70
2018-03-25T22:55:39.219Z,3.70
2018-03-25T22:58:06.730Z,3.70
2018-03-25T23:00:34.210Z,3.70
2018-03-25T23:03:01.882Z,3.70
2018-03-25T23:05:29.390Z,3.70
2018-03-25T23:07:56.886Z,3.70
2018-03-25T23:10:24.426Z,3.70
2018-03-25T23:12:51.939Z,3.70
2018-03-25T23:15:20.198Z,3.70
2018-03-25T23:17:47.748Z,3.70
2018-03-25T23:20:15.238Z,3.80
2018-03-25T23:22:43.498Z,3.80
2018-03-25T23:25:11.015Z,3.80
2018-03-25T23:27:38.522Z,3.80
2018-03-25T23:30:06.842Z,3.80
2018-03-25T23:32:34.335Z,3.80
2018-03-25T23:35:01.839Z,3.80
2018-03-25T23:37:29.365Z,3.90
2018-03-25T23:39:57.651Z,3.90
2018-03-25T23:42:25.936Z,3.90
2018-03-25T23:44:54.180Z,3.90
2018-03-25T23:47:21.670Z,3.90
2018-03-25T23:49:49.175Z,3.90
2018-03-25T23:52:16.668Z,3.80
2018-03-25T23:54:44.929Z,3.80
2018-03-25T23:57:12.623Z,3.80
2018-03-25T23:59:40.111Z,3.80
